sensor_id;sensor_type;location;lat;lon;timestamp;pressure;altitude;pressure_sealevel;temperature;humidity
71666;BME280;59503;53.486;10.196;2023-12-14T00:00:07;101005.16;;;2.58;100.00
71666;BME280;59503;53.486;10.196;2023-12-14T00:02:33;100996.50;;;2.61;100.00
71666;BME280;59503;53.486;10.196;2023-12-14T00:04:59;100998.41;;;2.60;100.00
71666;BME280;59503;53.486;10.196;2023-12-14T00:07:24;101001.38;;;2.59;100.00
71666;BME280;59503;53.486;10.196;2023-12-14T00:09:49;101004.53;;;2.61;100.00
71666;BME280;59503;53.486;10.196;2023-12-14T00:12:15;101001.47;;;2.67;100.00
71666;BME280;59503;53.486;10.196;2023-12-14T00:14:40;101008.53;;;2.63;100.00
71666;BME280;59503;53.486;10.196;2023-12-14T00:17:06;101015.03;;;2.71;100.00
71666;BME280;59503;53.486;10.196;2023-12-14T00:19:31;101016.28;;;2.65;100.00
71666;BME280;59503;53.486;10.196;2023-12-14T00:21:57;101025.63;;;2.67;100.00
71666;BME280;59503;53.486;10.196;2023-12-14T00:24:22;101030.59;;;2.60;100.00
71666;BME280;59503;53.486;10.196;2023-12-14T00:26:48;101036.94;;;2.64;100.00
71666;BME280;59503;53.486;10.196;2023-12-14T00:29:13;101041.00;;;2.75;100.00
71666;BME280;59503;53.486;10.196;2023-12-14T00:31:38;101040.50;;;2.73;100.00
71666;BME280;59503;53.486;10.196;2023-12-14T00:34:04;101038.13;;;2.72;100.00
71666;BME280;59503;53.486;10.196;2023-12-14T00:36:29;101037.69;;;2.78;100.00
71666;BME280;59503;53.486;10.196;2023-12-14T00:38:55;101042.56;;;2.76;100.00
71666;BME280;59503;53.486;10.196;2023-12-14T00:41:21;101051.25;;;2.73;100.00
71666;BME280;59503;53.486;10.196;2023-12-14T00:43:46;101056.00;;;2.76;100.00
71666;BME280;59503;53.486;10.196;2023-12-14T00:46:11;101047.09;;;2.67;100.00
71666;BME280;59503;53.486;10.196;2023-12-14T00:48:37;101069.31;;;2.81;100.00
71666;BME280;59503;53.486;10.196;2023-12-14T00:51:02;101068.81;;;2.79;100.00
71666;BME280;59503;53.486;10.196;2023-12-14T00:53:28;101072.91;;;2.77;100.00
71666;BME280;59503;53.486;10.196;2023-12-14T00:55:53;101073.22;;;2.75;100.00
71666;BME280;59503;53.486;10.196;2023-12-14T00:58:19;101085.09;;;2.83;100.00
71666;BME280;59503;53.486;10.196;2023-12-14T01:00:44;101082.41;;;2.83;100.00
71666;BME280;59503;53.486;10.196;2023-12-14T01:03:10;101077.16;;;2.78;100.00
71666;BME280;59503;53.486;10.196;2023-12-14T01:05:35;101093.97;;;2.83;100.00
71666;BME280;59503;53.486;10.196;2023-12-14T01:08:01;101087.59;;;2.79;100.00
71666;BME280;59503;53.486;10.196;2023-12-14T01:10:26;101098.41;;;2.88;100.00
71666;BME280;59503;53.486;10.196;2023-12-14T01:12:52;101099.22;;;2.88;100.00
71666;BME280;59503;53.486;10.196;2023-12-14T01:15:17;101101.91;;;2.88;100.00
71666;BME280;59503;53.486;10.196;2023-12-14T01:17:42;101109.47;;;2.86;100.00
71666;BME280;59503;53.486;10.196;2023-12-14T01:20:08;101109.75;;;2.85;100.00
71666;BME280;59503;53.486;10.196;2023-12-14T01:22:34;101106.88;;;2.81;100.00
71666;BME280;59503;53.486;10.196;2023-12-14T01:25:00;101108.59;;;2.77;100.00
71666;BME280;59503;53.486;10.196;2023-12-14T01:27:25;101127.34;;;2.91;100.00
71666;BME280;59503;53.486;10.196;2023-12-14T01:29:51;101117.81;;;2.85;100.00
71666;BME280;59503;53.486;10.196;2023-12-14T01:32:16;101130.31;;;2.89;100.00
71666;BME280;59503;53.486;10.196;2023-12-14T01:34:41;101129.75;;;2.92;100.00
71666;BME280;59503;53.486;10.196;2023-12-14T01:37:07;101131.81;;;2.95;100.00
71666;BME280;59503;53.486;10.196;2023-12-14T01:39:33;101123.69;;;2.87;100.00
71666;BME280;59503;53.486;10.196;2023-12-14T01:41:58;101135.78;;;2.98;100.00
71666;BME280;59503;53.486;10.196;2023-12-14T01:44:24;101138.28;;;2.94;100.00
71666;BME280;59503;53.486;10.196;2023-12-14T01:46:49;101139.28;;;2.98;100.00
71666;BME280;59503;53.486;10.196;2023-12-14T01:49:15;101141.03;;;3.03;100.00
71666;BME280;59503;53.486;10.196;2023-12-14T01:51:40;101141.97;;;2.98;100.00
71666;BME280;59503;53.486;10.196;2023-12-14T01:54:06;101143.66;;;2.94;100.00
71666;BME280;59503;53.486;10.196;2023-12-14T01:56:31;101148.63;;;3.01;100.00
71666;BME280;59503;53.486;10.196;2023-12-14T01:58:57;101143.84;;;2.98;100.00
71666;BME280;59503;53.486;10.196;2023-12-14T02:04:06;101154.97;;;3.05;100.00
71666;BME280;59503;53.486;10.196;2023-12-14T02:06:35;101162.22;;;3.04;100.00
71666;BME280;59503;53.486;10.196;2023-12-14T02:09:01;101156.94;;;3.13;100.00
71666;BME280;59503;53.486;10.196;2023-12-14T02:11:26;101158.34;;;3.10;100.00
71666;BME280;59503;53.486;10.196;2023-12-14T02:13:52;101168.09;;;3.06;100.00
71666;BME280;59503;53.486;10.196;2023-12-14T02:16:17;101168.59;;;3.08;100.00
71666;BME280;59503;53.486;10.196;2023-12-14T02:18:42;101158.75;;;3.04;100.00
71666;BME280;59503;53.486;10.196;2023-12-14T02:21:09;101169.09;;;3.10;100.00
71666;BME280;59503;53.486;10.196;2023-12-14T02:23:35;101173.97;;;3.08;100.00
71666;BME280;59503;53.486;10.196;2023-12-14T02:26:00;101171.69;;;3.02;100.00
71666;BME280;59503;53.486;10.196;2023-12-14T02:28:26;101177.56;;;3.04;100.00
71666;BME280;59503;53.486;10.196;2023-12-14T02:30:51;101171.28;;;3.08;100.00
71666;BME280;59503;53.486;10.196;2023-12-14T02:33:17;101179.63;;;3.20;100.00
71666;BME280;59503;53.486;10.196;2023-12-14T02:35:43;101181.41;;;3.11;100.00
71666;BME280;59503;53.486;10.196;2023-12-14T02:38:08;101183.59;;;3.09;100.00
71666;BME280;59503;53.486;10.196;2023-12-14T02:40:35;101183.13;;;3.07;100.00
71666;BME280;59503;53.486;10.196;2023-12-14T02:43:00;101184.22;;;3.06;100.00
71666;BME280;59503;53.486;10.196;2023-12-14T02:45:25;101193.38;;;3.05;100.00
71666;BME280;59503;53.486;10.196;2023-12-14T02:47:51;101205.38;;;3.08;100.00
71666;BME280;59503;53.486;10.196;2023-12-14T02:50:19;101198.53;;;3.15;100.00
71666;BME280;59503;53.486;10.196;2023-12-14T02:52:44;101195.94;;;3.10;100.00
71666;BME280;59503;53.486;10.196;2023-12-14T02:55:10;101204.00;;;3.10;100.00
71666;BME280;59503;53.486;10.196;2023-12-14T02:57:35;101211.06;;;3.06;100.00
71666;BME280;59503;53.486;10.196;2023-12-14T03:00:01;101201.13;;;3.07;100.00
71666;BME280;59503;53.486;10.196;2023-12-14T03:02:26;101212.06;;;3.10;100.00
71666;BME280;59503;53.486;10.196;2023-12-14T03:04:52;101211.56;;;3.08;100.00
71666;BME280;59503;53.486;10.196;2023-12-14T03:07:17;101201.94;;;3.07;100.00
71666;BME280;59503;53.486;10.196;2023-12-14T03:09:44;101209.97;;;3.07;100.00
71666;BME280;59503;53.486;10.196;2023-12-14T03:12:10;101206.31;;;3.03;100.00
71666;BME280;59503;53.486;10.196;2023-12-14T03:14:36;101213.44;;;3.08;100.00
71666;BME280;59503;53.486;10.196;2023-12-14T03:17:01;101221.31;;;3.04;100.00
71666;BME280;59503;53.486;10.196;2023-12-14T03:19:28;101223.22;;;3.04;100.00
71666;BME280;59503;53.486;10.196;2023-12-14T03:21:53;101233.56;;;3.10;100.00
71666;BME280;59503;53.486;10.196;2023-12-14T03:24:20;101235.63;;;3.13;100.00
71666;BME280;59503;53.486;10.196;2023-12-14T03:26:45;101242.56;;;3.14;100.00
71666;BME280;59503;53.486;10.196;2023-12-14T03:29:11;101227.97;;;3.07;100.00
71666;BME280;59503;53.486;10.196;2023-12-14T03:31:36;101250.63;;;3.14;100.00
71666;BME280;59503;53.486;10.196;2023-12-14T03:34:02;101250.38;;;3.16;100.00
71666;BME280;59503;53.486;10.196;2023-12-14T03:36:28;101260.59;;;3.14;100.00
71666;BME280;59503;53.486;10.196;2023-12-14T03:38:54;101262.78;;;3.12;100.00
71666;BME280;59503;53.486;10.196;2023-12-14T03:41:19;101263.78;;;3.16;100.00
71666;BME280;59503;53.486;10.196;2023-12-14T03:43:45;101268.34;;;3.15;100.00
71666;BME280;59503;53.486;10.196;2023-12-14T03:46:10;101272.63;;;3.16;100.00
71666;BME280;59503;53.486;10.196;2023-12-14T03:48:36;101279.00;;;3.20;100.00
71666;BME280;59503;53.486;10.196;2023-12-14T03:51:05;101260.59;;;3.14;100.00
71666;BME280;59503;53.486;10.196;2023-12-14T03:53:31;101280.06;;;3.19;100.00
71666;BME280;59503;53.486;10.196;2023-12-14T03:56:00;101279.59;;;3.17;100.00
71666;BME280;59503;53.486;10.196;2023-12-14T03:58:25;101285.28;;;3.16;100.00
71666;BME280;59503;53.486;10.196;2023-12-14T04:00:51;101276.22;;;3.12;100.00
71666;BME280;59503;53.486;10.196;2023-12-14T04:03:17;101286.97;;;3.12;100.00
71666;BME280;59503;53.486;10.196;2023-12-14T04:05:43;101279.59;;;3.04;100.00
71666;BME280;59503;53.486;10.196;2023-12-14T04:08:09;101289.44;;;3.08;100.00
71666;BME280;59503;53.486;10.196;2023-12-14T04:10:35;101295.22;;;3.15;100.00
71666;BME280;59503;53.486;10.196;2023-12-14T04:13:00;101294.50;;;3.10;100.00
71666;BME280;59503;53.486;10.196;2023-12-14T04:15:26;101291.53;;;3.11;100.00
71666;BME280;59503;53.486;10.196;2023-12-14T04:17:51;101294.22;;;3.11;100.00
71666;BME280;59503;53.486;10.196;2023-12-14T04:20:17;101305.34;;;3.05;100.00
71666;BME280;59503;53.486;10.196;2023-12-14T04:22:45;101297.81;;;3.07;100.00
71666;BME280;59503;53.486;10.196;2023-12-14T04:25:11;101302.38;;;3.06;100.00
71666;BME280;59503;53.486;10.196;2023-12-14T04:27:36;101305.56;;;3.08;100.00
71666;BME280;59503;53.486;10.196;2023-12-14T04:30:02;101307.75;;;3.06;100.00
71666;BME280;59503;53.486;10.196;2023-12-14T04:32:30;101310.94;;;3.08;100.00
71666;BME280;59503;53.486;10.196;2023-12-14T04:34:55;101318.78;;;3.05;100.00
71666;BME280;59503;53.486;10.196;2023-12-14T04:37:20;101319.00;;;3.08;100.00
71666;BME280;59503;53.486;10.196;2023-12-14T04:39:46;101321.97;;;3.07;100.00
71666;BME280;59503;53.486;10.196;2023-12-14T04:42:11;101329.53;;;3.05;100.00
71666;BME280;59503;53.486;10.196;2023-12-14T04:44:37;101329.72;;;3.08;100.00
71666;BME280;59503;53.486;10.196;2023-12-14T04:47:02;101324.66;;;3.07;100.00
71666;BME280;59503;53.486;10.196;2023-12-14T04:49:28;101334.50;;;3.11;100.00
71666;BME280;59503;53.486;10.196;2023-12-14T04:51:53;101334.19;;;3.13;100.00
71666;BME280;59503;53.486;10.196;2023-12-14T04:54:19;101332.53;;;3.17;100.00
71666;BME280;59503;53.486;10.196;2023-12-14T04:56:47;101330.22;;;3.10;100.00
71666;BME280;59503;53.486;10.196;2023-12-14T04:59:13;101337.09;;;3.16;100.00
71666;BME280;59503;53.486;10.196;2023-12-14T05:01:38;101333.13;;;3.14;100.00
71666;BME280;59503;53.486;10.196;2023-12-14T05:04:03;101349.91;;;3.19;100.00
71666;BME280;59503;53.486;10.196;2023-12-14T05:06:29;101339.09;;;3.11;100.00
71666;BME280;59503;53.486;10.196;2023-12-14T05:08:55;101347.22;;;3.19;100.00
71666;BME280;59503;53.486;10.196;2023-12-14T05:11:21;101357.88;;;3.24;100.00
71666;BME280;59503;53.486;10.196;2023-12-14T05:13:46;101373.22;;;3.24;100.00
71666;BME280;59503;53.486;10.196;2023-12-14T05:16:15;101366.25;;;3.23;100.00
71666;BME280;59503;53.486;10.196;2023-12-14T05:18:40;101370.22;;;3.25;100.00
71666;BME280;59503;53.486;10.196;2023-12-14T05:21:06;101363.25;;;3.24;100.00
71666;BME280;59503;53.486;10.196;2023-12-14T05:23:31;101364.16;;;3.20;100.00
71666;BME280;59503;53.486;10.196;2023-12-14T05:25:57;101361.16;;;3.21;100.00
71666;BME280;59503;53.486;10.196;2023-12-14T05:28:22;101372.03;;;3.30;100.00
71666;BME280;59503;53.486;10.196;2023-12-14T05:30:48;101385.25;;;3.26;100.00
71666;BME280;59503;53.486;10.196;2023-12-14T05:33:14;101394.50;;;3.20;100.00
71666;BME280;59503;53.486;10.196;2023-12-14T05:35:39;101383.84;;;3.15;100.00
71666;BME280;59503;53.486;10.196;2023-12-14T05:38:05;101401.88;;;3.28;100.00
71666;BME280;59503;53.486;10.196;2023-12-14T05:40:30;101395.09;;;3.17;100.00
71666;BME280;59503;53.486;10.196;2023-12-14T05:42:56;101403.63;;;3.19;100.00
71666;BME280;59503;53.486;10.196;2023-12-14T05:45:21;101398.88;;;3.16;100.00
71666;BME280;59503;53.486;10.196;2023-12-14T05:47:47;101409.59;;;3.16;100.00
71666;BME280;59503;53.486;10.196;2023-12-14T05:50:12;101417.88;;;3.20;100.00
71666;BME280;59503;53.486;10.196;2023-12-14T05:52:38;101418.78;;;3.15;100.00
71666;BME280;59503;53.486;10.196;2023-12-14T05:55:07;101425.63;;;3.21;100.00
71666;BME280;59503;53.486;10.196;2023-12-14T05:57:33;101434.19;;;3.23;100.00
71666;BME280;59503;53.486;10.196;2023-12-14T05:59:59;101438.78;;;3.23;100.00
71666;BME280;59503;53.486;10.196;2023-12-14T06:02:25;101438.28;;;3.21;100.00
71666;BME280;59503;53.486;10.196;2023-12-14T06:04:50;101452.78;;;3.20;100.00
71666;BME280;59503;53.486;10.196;2023-12-14T06:07:16;101455.69;;;3.23;100.00
71666;BME280;59503;53.486;10.196;2023-12-14T06:09:42;101459.47;;;3.22;100.00
71666;BME280;59503;53.486;10.196;2023-12-14T06:12:08;101459.19;;;3.24;100.00
71666;BME280;59503;53.486;10.196;2023-12-14T06:14:33;101465.34;;;3.24;100.00
71666;BME280;59503;53.486;10.196;2023-12-14T06:16:59;101458.09;;;3.25;100.00
71666;BME280;59503;53.486;10.196;2023-12-14T06:19:24;101457.78;;;3.26;100.00
71666;BME280;59503;53.486;10.196;2023-12-14T06:21:50;101457.28;;;3.24;100.00
71666;BME280;59503;53.486;10.196;2023-12-14T06:24:15;101454.13;;;3.22;100.00
71666;BME280;59503;53.486;10.196;2023-12-14T06:26:46;101459.88;;;3.29;100.00
71666;BME280;59503;53.486;10.196;2023-12-14T06:29:12;101452.41;;;3.26;100.00
71666;BME280;59503;53.486;10.196;2023-12-14T06:31:38;101460.78;;;3.25;100.00
71666;BME280;59503;53.486;10.196;2023-12-14T06:34:05;101465.25;;;3.29;100.00
71666;BME280;59503;53.486;10.196;2023-12-14T06:36:31;101480.19;;;3.35;100.00
71666;BME280;59503;53.486;10.196;2023-12-14T06:38:58;101476.50;;;3.31;100.00
71666;BME280;59503;53.486;10.196;2023-12-14T06:41:25;101493.72;;;3.30;100.00
71666;BME280;59503;53.486;10.196;2023-12-14T06:43:51;101493.03;;;3.38;100.00
71666;BME280;59503;53.486;10.196;2023-12-14T06:46:17;101496.91;;;3.32;100.00
71666;BME280;59503;53.486;10.196;2023-12-14T06:48:43;101498.88;;;3.27;100.00
71666;BME280;59503;53.486;10.196;2023-12-14T06:51:08;101494.97;;;3.19;100.00
71666;BME280;59503;53.486;10.196;2023-12-14T06:53:34;101509.34;;;3.28;100.00
71666;BME280;59503;53.486;10.196;2023-12-14T06:56:01;101515.72;;;3.32;100.00
71666;BME280;59503;53.486;10.196;2023-12-14T06:58:26;101517.81;;;3.35;100.00
71666;BME280;59503;53.486;10.196;2023-12-14T07:00:52;101515.72;;;3.32;100.00
71666;BME280;59503;53.486;10.196;2023-12-14T07:03:17;101529.84;;;3.38;100.00
71666;BME280;59503;53.486;10.196;2023-12-14T07:05:43;101523.69;;;3.37;100.00
71666;BME280;59503;53.486;10.196;2023-12-14T07:08:08;101523.69;;;3.37;100.00
71666;BME280;59503;53.486;10.196;2023-12-14T07:10:34;101519.69;;;3.35;100.00
71666;BME280;59503;53.486;10.196;2023-12-14T07:12:59;101525.38;;;3.33;100.00
71666;BME280;59503;53.486;10.196;2023-12-14T07:15:25;101526.56;;;3.27;100.00
71666;BME280;59503;53.486;10.196;2023-12-14T07:17:50;101520.75;;;3.20;100.00
71666;BME280;59503;53.486;10.196;2023-12-14T07:20:15;101537.09;;;3.24;100.00
71666;BME280;59503;53.486;10.196;2023-12-14T07:22:41;101537.38;;;3.22;100.00
71666;BME280;59503;53.486;10.196;2023-12-14T07:25:07;101535.25;;;3.19;100.00
71666;BME280;59503;53.486;10.196;2023-12-14T07:27:33;101551.13;;;3.21;100.00
71666;BME280;59503;53.486;10.196;2023-12-14T07:29:58;101546.44;;;3.26;100.00
71666;BME280;59503;53.486;10.196;2023-12-14T07:32:24;101559.88;;;3.26;100.00
71666;BME280;59503;53.486;10.196;2023-12-14T07:34:49;101569.03;;;3.25;100.00
71666;BME280;59503;53.486;10.196;2023-12-14T07:37:15;101576.78;;;3.27;100.00
71666;BME280;59503;53.486;10.196;2023-12-14T07:39:40;101578.47;;;3.23;100.00
71666;BME280;59503;53.486;10.196;2023-12-14T07:42:06;101585.97;;;3.26;100.00
71666;BME280;59503;53.486;10.196;2023-12-14T07:44:31;101599.66;;;3.24;100.00
71666;BME280;59503;53.486;10.196;2023-12-14T07:46:59;101587.41;;;3.18;100.00
71666;BME280;59503;53.486;10.196;2023-12-14T07:49:25;101599.16;;;3.22;100.00
71666;BME280;59503;53.486;10.196;2023-12-14T07:51:51;101605.03;;;3.24;100.00
71666;BME280;59503;53.486;10.196;2023-12-14T07:54:17;101602.94;;;3.21;100.00
71666;BME280;59503;53.486;10.196;2023-12-14T07:56:43;101612.81;;;3.26;100.00
71666;BME280;59503;53.486;10.196;2023-12-14T07:59:09;101621.97;;;3.25;100.00
71666;BME280;59503;53.486;10.196;2023-12-14T08:01:35;101629.72;;;3.26;100.00
71666;BME280;59503;53.486;10.196;2023-12-14T08:04:01;101631.34;;;3.27;100.00
71666;BME280;59503;53.486;10.196;2023-12-14T08:06:27;101637.78;;;3.26;100.00
71666;BME280;59503;53.486;10.196;2023-12-14T08:08:52;101635.69;;;3.23;100.00
71666;BME280;59503;53.486;10.196;2023-12-14T08:11:18;101645.75;;;3.31;100.00
71666;BME280;59503;53.486;10.196;2023-12-14T08:13:43;101651.66;;;3.33;100.00
71666;BME280;59503;53.486;10.196;2023-12-14T08:16:08;101656.22;;;3.33;100.00
71666;BME280;59503;53.486;10.196;2023-12-14T08:18:36;101655.75;;;3.31;100.00
71666;BME280;59503;53.486;10.196;2023-12-14T08:21:02;101658.91;;;3.33;100.00
71666;BME280;59503;53.486;10.196;2023-12-14T08:23:28;101656.00;;;3.29;100.00
71666;BME280;59503;53.486;10.196;2023-12-14T08:25:55;101664.78;;;3.35;100.00
71666;BME280;59503;53.486;10.196;2023-12-14T08:28:25;101665.09;;;3.33;100.00
71666;BME280;59503;53.486;10.196;2023-12-14T08:30:51;101674.19;;;3.37;100.00
71666;BME280;59503;53.486;10.196;2023-12-14T08:33:17;101678.38;;;3.43;100.00
71666;BME280;59503;53.486;10.196;2023-12-14T08:35:43;101682.16;;;3.42;100.00
71666;BME280;59503;53.486;10.196;2023-12-14T08:38:09;101675.19;;;3.41;100.00
71666;BME280;59503;53.486;10.196;2023-12-14T08:40:34;101669.03;;;3.41;100.00
71666;BME280;59503;53.486;10.196;2023-12-14T08:43:00;101677.31;;;3.44;100.00
71666;BME280;59503;53.486;10.196;2023-12-14T08:45:26;101677.78;;;3.46;100.00
71666;BME280;59503;53.486;10.196;2023-12-14T08:47:51;101679.63;;;3.51;100.00
71666;BME280;59503;53.486;10.196;2023-12-14T08:50:17;101682.31;;;3.51;100.00
71666;BME280;59503;53.486;10.196;2023-12-14T08:52:42;101684.91;;;3.56;100.00
71666;BME280;59503;53.486;10.196;2023-12-14T08:55:08;101680.84;;;3.58;100.00
71666;BME280;59503;53.486;10.196;2023-12-14T08:57:35;101689.63;;;3.64;100.00
71666;BME280;59503;53.486;10.196;2023-12-14T09:00:01;101693.41;;;3.63;100.00
71666;BME280;59503;53.486;10.196;2023-12-14T09:02:30;101699.56;;;3.63;100.00
71666;BME280;59503;53.486;10.196;2023-12-14T09:04:55;101700.16;;;3.60;100.00
71666;BME280;59503;53.486;10.196;2023-12-14T09:07:20;101699.06;;;3.61;100.00
71666;BME280;59503;53.486;10.196;2023-12-14T09:09:46;101706.97;;;3.71;100.00
71666;BME280;59503;53.486;10.196;2023-12-14T09:12:11;101715.03;;;3.71;100.00
71666;BME280;59503;53.486;10.196;2023-12-14T09:14:37;101715.56;;;3.73;100.00
71666;BME280;59503;53.486;10.196;2023-12-14T09:17:03;101727.13;;;3.74;100.00
71666;BME280;59503;53.486;10.196;2023-12-14T09:19:31;101729.28;;;3.72;100.00
71666;BME280;59503;53.486;10.196;2023-12-14T09:21:57;101733.31;;;3.74;100.00
71666;BME280;59503;53.486;10.196;2023-12-14T09:24:23;101741.06;;;3.76;100.00
71666;BME280;59503;53.486;10.196;2023-12-14T09:26:48;101747.09;;;3.87;100.00
71666;BME280;59503;53.486;10.196;2023-12-14T09:29:14;101746.38;;;3.81;100.00
71666;BME280;59503;53.486;10.196;2023-12-14T09:31:41;101742.66;;;3.77;100.00
71666;BME280;59503;53.486;10.196;2023-12-14T09:34:08;101751.47;;;3.83;100.00
71666;BME280;59503;53.486;10.196;2023-12-14T09:36:33;101759.44;;;3.88;100.00
71666;BME280;59503;53.486;10.196;2023-12-14T09:38:59;101753.50;;;3.91;100.00
71666;BME280;59503;53.486;10.196;2023-12-14T09:41:24;101743.91;;;3.85;100.00
71666;BME280;59503;53.486;10.196;2023-12-14T09:43:51;101753.50;;;3.91;100.00
71666;BME280;59503;53.486;10.196;2023-12-14T09:46:17;101758.06;;;3.90;100.00
71666;BME280;59503;53.486;10.196;2023-12-14T09:48:44;101758.78;;;3.96;100.00
71666;BME280;59503;53.486;10.196;2023-12-14T09:51:12;101759.00;;;3.99;100.00
71666;BME280;59503;53.486;10.196;2023-12-14T09:53:37;101753.31;;;4.01;100.00
71666;BME280;59503;53.486;10.196;2023-12-14T09:56:03;101762.97;;;4.02;100.00
71666;BME280;59503;53.486;10.196;2023-12-14T09:58:32;101764.09;;;4.01;100.00
71666;BME280;59503;53.486;10.196;2023-12-14T10:01:02;101762.91;;;4.07;100.00
71666;BME280;59503;53.486;10.196;2023-12-14T10:03:30;101759.72;;;4.05;100.00
71666;BME280;59503;53.486;10.196;2023-12-14T10:05:58;101757.34;;;4.03;100.00
71666;BME280;59503;53.486;10.196;2023-12-14T10:08:26;101769.31;;;4.11;100.00
71666;BME280;59503;53.486;10.196;2023-12-14T10:10:53;101767.72;;;4.10;100.00
71666;BME280;59503;53.486;10.196;2023-12-14T10:13:22;101769.81;;;4.13;100.00
71666;BME280;59503;53.486;10.196;2023-12-14T10:15:49;101771.41;;;4.14;100.00
71666;BME280;59503;53.486;10.196;2023-12-14T10:18:24;101775.13;;;4.18;100.00
71666;BME280;59503;53.486;10.196;2023-12-14T10:20:51;101775.72;;;4.15;100.00
71666;BME280;59503;53.486;10.196;2023-12-14T10:23:17;101781.56;;;4.17;100.00
71666;BME280;59503;53.486;10.196;2023-12-14T10:25:43;101789.09;;;4.20;100.00
71666;BME280;59503;53.486;10.196;2023-12-14T10:28:11;101790.09;;;4.24;100.00
71666;BME280;59503;53.486;10.196;2023-12-14T10:30:38;101795.97;;;4.26;100.00
71666;BME280;59503;53.486;10.196;2023-12-14T10:33:04;101799.69;;;4.30;100.00
71666;BME280;59503;53.486;10.196;2023-12-14T10:35:30;101806.44;;;4.27;100.00
71666;BME280;59503;53.486;10.196;2023-12-14T10:37:55;101800.47;;;4.30;100.00
71666;BME280;59503;53.486;10.196;2023-12-14T10:40:24;101807.16;;;4.33;100.00
71666;BME280;59503;53.486;10.196;2023-12-14T10:42:51;101802.88;;;4.32;100.00
71666;BME280;59503;53.486;10.196;2023-12-14T10:45:17;101819.34;;;4.44;100.00
71666;BME280;59503;53.486;10.196;2023-12-14T10:47:45;101819.66;;;4.42;100.00
71666;BME280;59503;53.486;10.196;2023-12-14T10:50:11;101825.28;;;4.59;100.00
71666;BME280;59503;53.486;10.196;2023-12-14T10:52:38;101831.56;;;4.55;100.00
71666;BME280;59503;53.486;10.196;2023-12-14T10:55:08;101832.56;;;4.59;100.00
71666;BME280;59503;53.486;10.196;2023-12-14T10:57:36;101836.88;;;4.60;100.00
71666;BME280;59503;53.486;10.196;2023-12-14T11:00:05;101837.94;;;4.59;100.00
71666;BME280;59503;53.486;10.196;2023-12-14T11:02:45;101832.88;;;4.57;100.00
71666;BME280;59503;53.486;10.196;2023-12-14T11:05:12;101840.06;;;4.62;100.00
71666;BME280;59503;53.486;10.196;2023-12-14T11:07:53;101848.34;;;4.65;100.00
71666;BME280;59503;53.486;10.196;2023-12-14T11:10:27;101857.53;;;4.64;100.00
71666;BME280;59503;53.486;10.196;2023-12-14T11:13:01;101849.22;;;4.61;100.00
71666;BME280;59503;53.486;10.196;2023-12-14T11:15:30;101851.31;;;4.64;100.00
71666;BME280;59503;53.486;10.196;2023-12-14T11:20:57;101860.94;;;4.70;100.00
71666;BME280;59503;53.486;10.196;2023-12-14T11:25:56;101869.53;;;4.72;100.00
71666;BME280;59503;53.486;10.196;2023-12-14T11:28:22;101868.63;;;4.76;100.00
71666;BME280;59503;53.486;10.196;2023-12-14T11:30:48;101878.59;;;4.76;100.00
71666;BME280;59503;53.486;10.196;2023-12-14T11:33:14;101892.56;;;4.78;100.00
71666;BME280;59503;53.486;10.196;2023-12-14T11:35:40;101882.63;;;4.78;100.00
71666;BME280;59503;53.486;10.196;2023-12-14T11:38:06;101880.22;;;4.77;100.00
71666;BME280;59503;53.486;10.196;2023-12-14T11:40:39;101886.97;;;4.74;100.00
71666;BME280;59503;53.486;10.196;2023-12-14T11:43:05;101888.66;;;4.70;100.00
71666;BME280;59503;53.486;10.196;2023-12-14T11:45:38;101900.16;;;4.76;100.00
71666;BME280;59503;53.486;10.196;2023-12-14T11:48:05;101895.06;;;4.74;100.00
71666;BME280;59503;53.486;10.196;2023-12-14T11:50:34;101900.53;;;4.69;100.00
71666;BME280;59503;53.486;10.196;2023-12-14T11:53:00;101903.50;;;4.68;100.00
71666;BME280;59503;53.486;10.196;2023-12-14T11:55:27;101899.72;;;4.69;100.00
71666;BME280;59503;53.486;10.196;2023-12-14T11:57:53;101904.09;;;4.65;100.00
71666;BME280;59503;53.486;10.196;2023-12-14T12:00:23;101904.09;;;4.65;100.00
71666;BME280;59503;53.486;10.196;2023-12-14T12:02:49;101902.50;;;4.64;100.00
71666;BME280;59503;53.486;10.196;2023-12-14T12:05:15;101904.41;;;4.63;100.00
71666;BME280;59503;53.486;10.196;2023-12-14T12:07:44;101907.56;;;4.65;100.00
71666;BME280;59503;53.486;10.196;2023-12-14T12:10:10;101915.88;;;4.69;100.00
71666;BME280;59503;53.486;10.196;2023-12-14T12:12:36;101906.22;;;4.68;100.00
71666;BME280;59503;53.486;10.196;2023-12-14T12:15:02;101912.31;;;4.73;100.00
71666;BME280;59503;53.486;10.196;2023-12-14T12:17:27;101910.19;;;4.70;100.00
71666;BME280;59503;53.486;10.196;2023-12-14T12:19:53;101916.59;;;4.74;100.00
71666;BME280;59503;53.486;10.196;2023-12-14T12:22:19;101910.19;;;4.70;100.00
71666;BME280;59503;53.486;10.196;2023-12-14T12:24:44;101911.59;;;4.68;100.00
71666;BME280;59503;53.486;10.196;2023-12-14T12:27:09;101910.78;;;4.67;100.00
71666;BME280;59503;53.486;10.196;2023-12-14T12:29:35;101918.16;;;4.62;100.00
71666;BME280;59503;53.486;10.196;2023-12-14T12:32:00;101912.34;;;4.55;100.00
71666;BME280;59503;53.486;10.196;2023-12-14T12:34:26;101916.63;;;4.56;100.00
71666;BME280;59503;53.486;10.196;2023-12-14T12:36:52;101913.50;;;4.49;100.00
71666;BME280;59503;53.486;10.196;2023-12-14T12:39:17;101924.03;;;4.45;100.00
71666;BME280;59503;53.486;10.196;2023-12-14T12:41:43;101911.97;;;4.43;100.00